createdAt,value
2022-08-22T00:00:13.649Z,18.20
2022-08-22T00:02:43.199Z,17.92
2022-08-22T00:02:49.988Z,18.10
2022-08-22T00:02:52.695Z,18.55
2022-08-22T00:03:22.783Z,18.15
2022-08-22T00:06:11.201Z,18.15
2022-08-22T00:08:49.465Z,18.13
2022-08-22T00:11:29.599Z,18.14
2022-08-22T00:14:07.375Z,18.16
2022-08-22T00:16:45.227Z,18.22
2022-08-22T00:19:23.873Z,18.26
2022-08-22T00:22:02.133Z,18.28
2022-08-22T00:24:36.066Z,18.26
2022-08-22T00:27:11.764Z,18.28
2022-08-22T00:29:45.481Z,18.27
2022-08-22T00:32:20.593Z,18.23
2022-08-22T00:34:58.106Z,18.22
2022-08-22T00:37:36.317Z,18.21
2022-08-22T00:40:22.709Z,18.26
2022-08-22T00:43:30.893Z,18.30
2022-08-22T00:46:25.549Z,18.29
2022-08-22T00:49:12.345Z,18.29
2022-08-22T00:52:18.894Z,18.30
2022-08-22T00:55:05.227Z,18.27
2022-08-22T00:57:50.029Z,18.31
2022-08-22T01:00:22.994Z,18.32
2022-08-22T01:03:28.650Z,18.32
2022-08-22T01:06:17.178Z,18.29
2022-08-22T01:09:02.257Z,18.28
2022-08-22T01:12:13.820Z,18.26
2022-08-22T01:14:48.745Z,18.25
2022-08-22T01:17:46.571Z,18.24
2022-08-22T01:20:55.388Z,18.21
2022-08-22T01:24:02.849Z,18.19
2022-08-22T01:27:02.889Z,18.15
2022-08-22T01:30:04.773Z,18.13
2022-08-22T01:33:13.738Z,18.14
2022-08-22T01:36:09.067Z,18.16
2022-08-22T01:39:04.158Z,18.12
2022-08-22T01:42:07.056Z,18.08
2022-08-22T01:45:18.032Z,18.09
2022-08-22T01:47:54.351Z,18.06
2022-08-22T01:50:28.397Z,18.07
2022-08-22T01:53:06.920Z,18.09
2022-08-22T01:55:44.761Z,18.10
2022-08-22T01:58:24.194Z,18.04
2022-08-22T02:01:09.899Z,18.05
2022-08-22T02:03:52.354Z,18.05
2022-08-22T02:06:33.258Z,18.04
2022-08-22T02:09:10.490Z,18.05
2022-08-22T02:11:47.848Z,18.03
2022-08-22T02:14:34.210Z,18.03
2022-08-22T02:17:17.004Z,18.00
2022-08-22T02:19:57.385Z,18.04
2022-08-22T02:22:44.608Z,18.02
2022-08-22T02:25:22.777Z,18.00
2022-08-22T02:27:58.710Z,18.01
2022-08-22T02:30:44.340Z,18.01
2022-08-22T02:33:25.804Z,17.96
2022-08-22T02:36:01.144Z,17.96
2022-08-22T02:38:38.483Z,17.94
2022-08-22T02:41:18.086Z,17.94
2022-08-22T02:43:59.621Z,17.94
2022-08-22T02:46:41.116Z,17.91
2022-08-22T02:49:18.892Z,17.90
2022-08-22T02:51:54.756Z,17.88
2022-08-22T02:54:31.552Z,17.90
2022-08-22T02:57:14.081Z,17.88
2022-08-22T03:00:32.526Z,17.86
2022-08-22T03:03:16.170Z,17.86
2022-08-22T03:06:01.289Z,17.85
2022-08-22T03:08:34.456Z,17.82
2022-08-22T03:11:19.447Z,17.84
2022-08-22T03:13:57.189Z,17.85
2022-08-22T03:16:35.112Z,17.85
2022-08-22T03:19:13.225Z,17.83
2022-08-22T03:21:59.423Z,17.82
2022-08-22T03:24:36.367Z,17.83
2022-08-22T03:27:12.980Z,17.84
2022-08-22T03:29:49.275Z,17.82
2022-08-22T03:32:21.958Z,17.80
2022-08-22T03:35:03.058Z,17.76
2022-08-22T03:37:43.359Z,17.76
2022-08-22T03:40:31.837Z,17.76
2022-08-22T03:43:22.562Z,17.79
2022-08-22T03:46:28.161Z,17.83
2022-08-22T03:49:26.570Z,17.84
2022-08-22T03:52:23.124Z,17.83
2022-08-22T03:55:18.856Z,17.84
2022-08-22T03:58:17.153Z,17.86
2022-08-22T04:01:40.022Z,17.89
2022-08-22T04:04:58.216Z,17.90
2022-08-22T04:07:46.789Z,17.87
2022-08-22T04:11:02.519Z,17.87
2022-08-22T04:14:00.754Z,17.85
2022-08-22T04:16:58.227Z,17.85
2022-08-22T04:19:54.546Z,17.85
2022-08-22T04:22:51.139Z,17.86
2022-08-22T04:25:24.381Z,17.85
2022-08-22T04:28:02.294Z,17.85
2022-08-22T04:30:38.707Z,17.84
2022-08-22T04:33:16.386Z,17.86
2022-08-22T04:35:56.136Z,17.85
2022-08-22T04:38:32.506Z,17.88
2022-08-22T04:41:08.913Z,17.88
2022-08-22T04:43:44.885Z,17.90
2022-08-22T04:46:21.049Z,17.92
2022-08-22T04:49:00.295Z,17.94
2022-08-22T04:51:39.771Z,17.97
2022-08-22T04:54:32.130Z,18.00
2022-08-22T04:57:15.627Z,18.02
2022-08-22T04:59:45.787Z,18.05
2022-08-22T05:02:23.318Z,18.10
2022-08-22T05:05:01.699Z,18.12
2022-08-22T05:07:36.378Z,18.15
2022-08-22T05:10:12.181Z,18.20
2022-08-22T05:12:47.898Z,18.22
2022-08-22T05:15:23.096Z,18.25
2022-08-22T05:17:56.937Z,18.27
2022-08-22T05:20:30.232Z,18.30
2022-08-22T05:23:06.309Z,18.29
2022-08-22T05:25:49.697Z,18.33
2022-08-22T05:28:27.830Z,18.34
2022-08-22T05:30:58.680Z,18.34
2022-08-22T05:33:32.032Z,18.35
2022-08-22T05:36:07.575Z,18.38
2022-08-22T05:38:42.238Z,18.43
2022-08-22T05:41:20.161Z,18.46
2022-08-22T05:43:51.303Z,18.50
2022-08-22T05:46:27.065Z,18.52
2022-08-22T05:49:01.963Z,18.53
2022-08-22T05:51:47.807Z,18.58
2022-08-22T05:54:21.757Z,18.59
2022-08-22T05:57:11.053Z,18.67
2022-08-22T05:59:44.370Z,18.66
2022-08-22T06:02:21.944Z,18.70
2022-08-22T06:04:55.377Z,18.73
2022-08-22T06:07:34.571Z,18.77
2022-08-22T06:10:24.764Z,18.81
2022-08-22T06:13:01.980Z,18.86
2022-08-22T06:15:36.183Z,18.91
2022-08-22T06:18:11.513Z,18.96
2022-08-22T06:20:45.292Z,19.02
2022-08-22T06:23:22.483Z,19.06
2022-08-22T06:25:53.333Z,19.11
2022-08-22T06:28:26.704Z,19.17
2022-08-22T06:30:57.444Z,19.20
2022-08-22T06:33:29.834Z,19.23
2022-08-22T06:36:21.471Z,19.29
2022-08-22T06:39:02.582Z,19.34
2022-08-22T06:41:35.637Z,19.41
2022-08-22T06:44:08.242Z,19.47
2022-08-22T06:46:40.355Z,19.54
2022-08-22T06:49:11.391Z,19.59
2022-08-22T06:51:41.895Z,19.65
2022-08-22T06:54:19.746Z,19.71
2022-08-22T06:56:52.535Z,19.78
2022-08-22T06:59:27.244Z,19.84
2022-08-22T07:02:02.770Z,19.89
2022-08-22T07:04:33.024Z,19.96
2022-08-22T07:07:03.070Z,19.99
2022-08-22T07:09:38.290Z,20.03
2022-08-22T07:12:18.371Z,20.07
2022-08-22T07:14:52.147Z,20.09
2022-08-22T07:17:25.449Z,20.13
2022-08-22T07:20:00.542Z,20.17
2022-08-22T07:22:33.624Z,20.20
2022-08-22T07:25:10.606Z,20.26
2022-08-22T07:27:55.531Z,20.31
2022-08-22T07:30:30.227Z,20.34
2022-08-22T07:33:26.159Z,20.38
2022-08-22T07:36:01.621Z,20.47
2022-08-22T07:38:42.971Z,20.50
2022-08-22T07:41:20.052Z,20.54
2022-08-22T07:43:54.121Z,20.55
2022-08-22T07:46:29.978Z,20.60
2022-08-22T07:49:09.596Z,20.64
2022-08-22T07:51:45.428Z,20.69
2022-08-22T07:54:21.747Z,20.72
2022-08-22T07:57:04.396Z,20.76
2022-08-22T07:59:37.132Z,20.79
2022-08-22T08:02:13.508Z,20.84
2022-08-22T08:04:43.901Z,20.87
2022-08-22T08:07:17.188Z,20.91
2022-08-22T08:09:51.186Z,20.94
2022-08-22T08:12:30.172Z,20.97
2022-08-22T08:15:01.391Z,20.99
2022-08-22T08:17:33.399Z,21.02
2022-08-22T08:20:09.366Z,21.04
2022-08-22T08:22:41.485Z,21.08
2022-08-22T08:25:14.409Z,21.12
2022-08-22T08:28:03.459Z,21.15
2022-08-22T08:30:40.460Z,21.16
2022-08-22T08:33:26.173Z,21.19
2022-08-22T08:36:03.937Z,21.24
2022-08-22T08:38:39.342Z,21.27
2022-08-22T08:41:38.840Z,21.31
2022-08-22T08:44:28.358Z,21.33
2022-08-22T08:47:17.509Z,21.37
2022-08-22T08:50:16.368Z,21.42
2022-08-22T08:53:21.864Z,21.48
2022-08-22T08:55:59.633Z,21.54
2022-08-22T08:58:51.732Z,21.61
2022-08-22T09:01:49.198Z,21.68
2022-08-22T09:04:39.158Z,21.81
2022-08-22T09:07:46.999Z,21.93
2022-08-22T09:10:36.221Z,22.05
2022-08-22T09:13:41.707Z,22.17
2022-08-22T09:16:29.650Z,22.22
2022-08-22T09:19:27.182Z,22.25
2022-08-22T09:22:50.611Z,22.26
2022-08-22T09:25:38.351Z,22.27
2022-08-22T09:28:17.869Z,22.25
2022-08-22T09:31:33.019Z,22.27
2022-08-22T09:34:13.709Z,22.29
2022-08-22T09:37:14.001Z,22.30
2022-08-22T09:39:58.705Z,22.31
2022-08-22T09:42:39.833Z,22.32
2022-08-22T09:45:43.152Z,22.33
2022-08-22T09:48:48.075Z,22.33
2022-08-22T09:51:31.681Z,22.32
2022-08-22T09:54:18.788Z,22.31
2022-08-22T09:57:15.739Z,22.33
2022-08-22T10:00:13.631Z,22.32
2022-08-22T10:02:53.653Z,22.32
2022-08-22T10:05:39.503Z,22.30
2022-08-22T10:08:27.623Z,22.30
2022-08-22T10:11:08.653Z,22.33
2022-08-22T10:13:52.884Z,22.33
2022-08-22T10:16:48.618Z,22.36
2022-08-22T10:19:26.408Z,22.39
2022-08-22T10:22:22.127Z,22.40
2022-08-22T10:25:09.077Z,22.41
2022-08-22T10:27:52.796Z,22.44
2022-08-22T10:30:27.939Z,22.45
2022-08-22T10:33:14.322Z,22.48
2022-08-22T10:35:57.998Z,22.50
2022-08-22T10:38:43.957Z,22.51
2022-08-22T10:41:30.735Z,22.53
2022-08-22T10:44:06.338Z,22.52
2022-08-22T10:46:42.259Z,22.53
2022-08-22T10:49:20.737Z,22.57
2022-08-22T10:52:06.509Z,22.57
2022-08-22T10:54:53.896Z,22.60
2022-08-22T10:57:39.973Z,22.60
2022-08-22T11:00:16.904Z,22.61
2022-08-22T11:03:00.963Z,22.62
2022-08-22T11:05:40.415Z,22.63
2022-08-22T11:08:43.739Z,22.63
2022-08-22T11:11:39.030Z,22.63
2022-08-22T11:14:36.193Z,22.63
2022-08-22T11:17:27.557Z,22.63
2022-08-22T11:20:13.678Z,22.62
2022-08-22T11:22:55.537Z,22.60
2022-08-22T11:25:41.410Z,22.57
2022-08-22T11:28:48.799Z,22.60
2022-08-22T11:31:25.050Z,22.55
2022-08-22T11:34:00.849Z,22.55
2022-08-22T11:36:40.229Z,22.54
2022-08-22T11:39:22.056Z,22.51
2022-08-22T11:41:59.992Z,22.49
2022-08-22T11:44:34.487Z,22.49
2022-08-22T11:47:12.925Z,22.50
2022-08-22T11:49:57.446Z,22.49
2022-08-22T11:52:59.214Z,22.49
2022-08-22T11:56:15.058Z,22.47
2022-08-22T11:59:00.520Z,22.47
2022-08-22T12:01:39.116Z,22.45
2022-08-22T12:04:21.327Z,22.45
2022-08-22T12:07:00.083Z,22.45
2022-08-22T12:09:44.213Z,22.46
2022-08-22T12:12:32.768Z,22.46
2022-08-22T12:15:11.013Z,22.44
2022-08-22T12:18:21.412Z,22.48
2022-08-22T12:21:23.930Z,22.47
2022-08-22T12:24:24.867Z,22.49
2022-08-22T12:27:28.556Z,22.51
2022-08-22T12:30:13.204Z,22.53
2022-08-22T12:33:23.153Z,22.53
2022-08-22T12:36:18.365Z,22.54
2022-08-22T12:39:43.941Z,22.53
2022-08-22T12:42:31.926Z,22.51
2022-08-22T12:48:01.912Z,22.52
2022-08-22T12:51:19.390Z,22.52
2022-08-22T12:54:55.049Z,22.49
2022-08-22T12:57:39.009Z,22.51
2022-08-22T13:00:29.584Z,22.50
2022-08-22T13:03:04.659Z,22.52
2022-08-22T13:05:40.656Z,22.51
2022-08-22T13:08:21.950Z,22.51
2022-08-22T13:11:10.013Z,22.52
2022-08-22T13:13:56.592Z,22.50
2022-08-22T13:16:49.053Z,22.54
2022-08-22T13:19:39.631Z,22.51
2022-08-22T13:22:14.995Z,22.48
2022-08-22T13:24:52.658Z,22.47
2022-08-22T13:27:30.691Z,22.47
2022-08-22T13:30:12.380Z,22.46
2022-08-22T13:32:46.897Z,22.43
2022-08-22T13:35:25.601Z,22.43
2022-08-22T13:38:05.002Z,22.40
2022-08-22T13:40:37.170Z,22.39
2022-08-22T13:43:11.306Z,22.37
2022-08-22T13:45:44.087Z,22.34
2022-08-22T13:48:16.718Z,22.34
2022-08-22T13:51:06.123Z,22.32
2022-08-22T13:53:46.392Z,22.29
2022-08-22T13:56:31.359Z,22.28
2022-08-22T13:59:06.032Z,22.26
2022-08-22T14:01:53.061Z,22.22
2022-08-22T14:04:36.007Z,22.22
2022-08-22T14:07:25.516Z,22.21
2022-08-22T14:10:06.246Z,22.20
2022-08-22T14:13:41.734Z,22.16
2022-08-22T14:16:20.739Z,22.14
2022-08-22T14:18:54.918Z,22.12
2022-08-22T14:21:41.199Z,22.09
2022-08-22T14:24:18.963Z,22.06
2022-08-22T14:26:59.632Z,22.06
2022-08-22T14:29:45.793Z,22.02
2022-08-22T14:32:43.319Z,22.02
2022-08-22T14:35:35.024Z,21.99
2022-08-22T14:38:27.565Z,21.97
2022-08-22T14:41:06.061Z,21.93
2022-08-22T14:43:49.386Z,21.92
2022-08-22T14:46:26.587Z,21.89
2022-08-22T14:49:29.401Z,21.86
2022-08-22T14:52:10.363Z,21.85
2022-08-22T14:54:50.983Z,21.86
2022-08-22T14:57:21.848Z,21.85
2022-08-22T14:59:53.703Z,21.82
2022-08-22T15:02:29.787Z,21.81
2022-08-22T15:05:12.574Z,21.80
2022-08-22T15:07:42.800Z,21.80
2022-08-22T15:10:25.555Z,21.77
2022-08-22T15:12:58.742Z,21.74
2022-08-22T15:15:41.181Z,21.73
2022-08-22T15:18:33.773Z,21.72
2022-08-22T15:21:08.636Z,21.73
2022-08-22T15:23:46.819Z,21.70
2022-08-22T15:26:28.093Z,21.67
2022-08-22T15:29:25.607Z,21.64
2022-08-22T15:32:01.409Z,21.64
2022-08-22T15:34:38.982Z,21.63
2022-08-22T15:37:35.176Z,21.64
2022-08-22T15:40:13.106Z,21.60
2022-08-22T15:42:54.369Z,21.60
2022-08-22T15:45:54.154Z,21.59
2022-08-22T15:48:37.064Z,21.59
2022-08-22T15:51:13.818Z,21.54
2022-08-22T15:54:25.260Z,21.51
2022-08-22T15:57:14.128Z,21.50
2022-08-22T15:59:54.746Z,21.47
2022-08-22T16:02:35.639Z,21.46
2022-08-22T16:05:23.145Z,21.46
2022-08-22T16:08:03.761Z,21.44
2022-08-22T16:10:39.279Z,21.43
2022-08-22T16:13:34.939Z,21.41
2022-08-22T16:16:11.173Z,21.40
2022-08-22T16:19:13.886Z,21.38
2022-08-22T16:22:12.148Z,21.36
2022-08-22T16:25:03.526Z,21.37
2022-08-22T16:27:35.023Z,21.36
2022-08-22T16:30:17.053Z,21.34
2022-08-22T16:32:56.357Z,21.35
2022-08-22T16:36:22.949Z,21.31
2022-08-22T16:38:55.923Z,21.28
2022-08-22T16:41:40.287Z,21.29
2022-08-22T16:44:24.040Z,21.27
2022-08-22T16:46:56.622Z,21.25
2022-08-22T16:49:30.610Z,21.26
2022-08-22T16:52:37.180Z,21.23
2022-08-22T16:55:28.620Z,21.21
2022-08-22T16:58:06.982Z,21.18
2022-08-22T17:00:57.556Z,21.15
2022-08-22T17:03:38.895Z,21.15
2022-08-22T17:06:36.363Z,21.15
2022-08-22T17:09:31.122Z,21.12
2022-08-22T17:12:13.189Z,21.07
2022-08-22T17:14:55.122Z,21.06
2022-08-22T17:17:37.072Z,21.04
2022-08-22T17:20:29.649Z,21.02
2022-08-22T17:23:10.565Z,21.01
2022-08-22T17:25:58.783Z,21.00
2022-08-22T17:28:38.642Z,20.99
2022-08-22T17:31:18.206Z,20.97
2022-08-22T17:34:09.889Z,20.97
2022-08-22T17:36:53.810Z,20.96
2022-08-22T17:39:38.496Z,20.96
2022-08-22T17:42:21.396Z,20.95
2022-08-22T17:45:01.002Z,20.92
2022-08-22T17:47:34.791Z,20.91
2022-08-22T17:50:21.964Z,20.90
2022-08-22T17:52:57.130Z,20.89
2022-08-22T17:55:32.553Z,20.90
2022-08-22T17:58:11.199Z,20.85
2022-08-22T18:00:49.424Z,20.84
2022-08-22T18:03:26.277Z,20.83
2022-08-22T18:06:06.108Z,20.80
2022-08-22T18:11:40.059Z,20.77
2022-08-22T18:14:22.297Z,20.76
2022-08-22T18:16:55.526Z,20.74
2022-08-22T18:19:41.145Z,20.73
2022-08-22T18:22:19.412Z,20.71
2022-08-22T18:24:54.810Z,20.68
2022-08-22T18:27:34.994Z,20.64
2022-08-22T18:30:16.363Z,20.63
2022-08-22T18:32:56.063Z,20.63
2022-08-22T18:35:28.979Z,20.60
2022-08-22T18:38:19.693Z,20.58
2022-08-22T18:40:55.621Z,20.56
2022-08-22T18:43:36.213Z,20.54
2022-08-22T18:46:21.932Z,20.54
2022-08-22T18:49:14.191Z,20.52
2022-08-22T18:51:41.697Z,20.48
2022-08-22T18:54:43.145Z,20.49
2022-08-22T18:57:32.325Z,20.46
2022-08-22T19:00:16.530Z,20.45
2022-08-22T19:03:14.993Z,20.43
2022-08-22T19:06:09.915Z,20.42
2022-08-22T19:08:54.706Z,20.40
2022-08-22T19:11:43.820Z,20.39
2022-08-22T19:14:27.914Z,20.39
2022-08-22T19:17:17.925Z,20.38
2022-08-22T19:20:15.657Z,20.35
2022-08-22T19:22:45.450Z,20.34
2022-08-22T19:25:26.893Z,20.34
2022-08-22T19:28:26.785Z,20.33
2022-08-22T19:31:22.753Z,20.31
2022-08-22T19:34:08.548Z,20.30
2022-08-22T19:36:38.110Z,20.29
2022-08-22T19:39:09.422Z,20.31
2022-08-22T19:41:52.452Z,20.26
2022-08-22T19:44:42.342Z,20.24
2022-08-22T19:47:30.943Z,20.24
2022-08-22T19:50:08.706Z,20.22
2022-08-22T19:52:56.269Z,20.20
2022-08-22T19:55:34.576Z,20.20
2022-08-22T19:58:13.182Z,20.19
2022-08-22T20:00:53.529Z,20.20
2022-08-22T20:03:37.502Z,20.19
2022-08-22T20:06:33.747Z,20.18
2022-08-22T20:09:18.582Z,20.18
2022-08-22T20:11:56.709Z,20.18
2022-08-22T20:14:30.886Z,20.17
2022-08-22T20:17:12.692Z,20.17
2022-08-22T20:22:47.116Z,20.13
2022-08-22T20:25:42.384Z,20.12
2022-08-22T20:28:26.545Z,20.10
2022-08-22T20:31:00.502Z,20.07
2022-08-22T20:33:35.003Z,20.08
2022-08-22T20:36:27.151Z,20.07
2022-08-22T20:39:01.193Z,20.04
2022-08-22T20:41:38.651Z,20.03
2022-08-22T20:44:15.960Z,20.02
2022-08-22T20:46:54.987Z,20.02
2022-08-22T20:49:29.507Z,20.00
2022-08-22T20:52:01.352Z,19.99
2022-08-22T20:54:33.474Z,20.00
2022-08-22T20:57:11.411Z,19.99
2022-08-22T20:59:43.062Z,19.99
2022-08-22T21:02:17.120Z,19.99
2022-08-22T21:05:00.099Z,19.98
2022-08-22T21:07:32.161Z,19.99
2022-08-22T21:10:25.442Z,19.99
2022-08-22T21:13:12.614Z,19.99
2022-08-22T21:15:45.790Z,19.97
2022-08-22T21:18:24.177Z,19.99
2022-08-22T21:21:05.126Z,19.98
2022-08-22T21:23:38.961Z,19.95
2022-08-22T21:26:10.425Z,19.98
2022-08-22T21:28:54.827Z,19.98
2022-08-22T21:31:26.240Z,19.96
2022-08-22T21:33:57.086Z,19.97
2022-08-22T21:36:31.695Z,19.98
2022-08-22T21:39:04.650Z,19.98
2022-08-22T21:41:39.328Z,20.00
2022-08-22T21:44:29.284Z,19.98
2022-08-22T21:47:14.371Z,19.98
2022-08-22T21:50:15.676Z,19.99
2022-08-22T21:53:02.313Z,20.00
2022-08-22T21:55:34.518Z,20.00
2022-08-22T21:58:07.750Z,20.00
2022-08-22T22:00:49.797Z,20.01
2022-08-22T22:03:21.122Z,19.99
2022-08-22T22:05:52.937Z,20.01
2022-08-22T22:08:23.773Z,20.02
2022-08-22T22:11:01.876Z,20.03
2022-08-22T22:13:31.974Z,20.05
2022-08-22T22:16:02.269Z,20.05
2022-08-22T22:18:32.368Z,20.05
2022-08-22T22:21:01.836Z,20.03
2022-08-22T22:23:32.926Z,20.03
2022-08-22T22:26:04.438Z,20.04
2022-08-22T22:28:37.929Z,20.05
2022-08-22T22:31:07.891Z,20.06
2022-08-22T22:33:39.970Z,20.07
2022-08-22T22:36:12.366Z,20.08
2022-08-22T22:38:43.341Z,20.09
2022-08-22T22:41:14.005Z,20.10
2022-08-22T22:43:45.004Z,20.11
2022-08-22T22:46:14.222Z,20.12
2022-08-22T22:48:43.438Z,20.12
2022-08-22T22:51:14.694Z,20.12
2022-08-22T22:53:45.814Z,20.12
2022-08-22T22:56:17.760Z,20.12
2022-08-22T22:58:50.815Z,20.12
2022-08-22T23:01:30.505Z,20.11
2022-08-22T23:04:03.245Z,20.11
2022-08-22T23:06:35.749Z,20.11
2022-08-22T23:09:06.425Z,20.09
2022-08-22T23:11:35.736Z,20.09
2022-08-22T23:14:05.183Z,20.10
2022-08-22T23:16:37.254Z,20.10
2022-08-22T23:19:10.510Z,20.09
2022-08-22T23:21:40.596Z,20.08
2022-08-22T23:24:11.992Z,20.07
2022-08-22T23:26:42.377Z,20.05
2022-08-22T23:29:12.302Z,20.04
2022-08-22T23:31:43.535Z,20.04
2022-08-22T23:34:15.134Z,20.04
2022-08-22T23:36:47.833Z,20.03
2022-08-22T23:39:21.054Z,20.04
2022-08-22T23:41:50.952Z,20.01
2022-08-22T23:44:23.150Z,19.99
2022-08-22T23:46:53.137Z,19.99
2022-08-22T23:49:22.981Z,19.98
2022-08-22T23:51:53.284Z,19.97
2022-08-22T23:54:24.350Z,19.94
2022-08-22T23:56:55.809Z,19.95
2022-08-22T23:59:30.063Z,19.94
